sensor_id;sensor_type;location;lat;lon;timestamp;pressure;altitude;pressure_sealevel;temperature;humidity
69751;BME280;57335;52.288;6.056;2023-03-12T00:01:21;101186.44;;;-0.33;97.11
69751;BME280;57335;52.288;6.056;2023-03-12T00:03:48;101182.50;;;-0.37;97.09
69751;BME280;57335;52.288;6.056;2023-03-12T00:06:16;101175.03;;;-0.40;96.40
69751;BME280;57335;52.288;6.056;2023-03-12T00:08:43;101203.03;;;-0.26;96.93
69751;BME280;57335;52.288;6.056;2023-03-12T00:11:13;101197.22;;;-0.28;97.18
69751;BME280;57335;52.288;6.056;2023-03-12T00:13:40;101182.00;;;-0.31;97.76
69751;BME280;57335;52.288;6.056;2023-03-12T00:16:10;101191.91;;;-0.26;97.28
69751;BME280;57335;52.288;6.056;2023-03-12T00:18:37;101178.84;;;-0.34;97.00
69751;BME280;57335;52.288;6.056;2023-03-12T00:21:04;101179.53;;;-0.32;97.48
69751;BME280;57335;52.288;6.056;2023-03-12T00:23:30;101175.97;;;-0.41;97.55
69751;BME280;57335;52.288;6.056;2023-03-12T00:26:11;101175.84;;;-0.39;96.92
69751;BME280;57335;52.288;6.056;2023-03-12T00:28:39;101184.66;;;-0.42;96.63
69751;BME280;57335;52.288;6.056;2023-03-12T00:31:14;101158.00;;;-0.52;97.36
69751;BME280;57335;52.288;6.056;2023-03-12T00:33:41;101174.59;;;-0.45;97.10
69751;BME280;57335;52.288;6.056;2023-03-12T00:36:08;101169.94;;;-0.51;96.54
69751;BME280;57335;52.288;6.056;2023-03-12T00:38:35;101164.91;;;-0.53;95.82
69751;BME280;57335;52.288;6.056;2023-03-12T00:41:01;101170.75;;;-0.51;95.55
69751;BME280;57335;52.288;6.056;2023-03-12T00:43:28;101158.25;;;-0.55;96.07
69751;BME280;57335;52.288;6.056;2023-03-12T00:45:54;101159.88;;;-0.54;95.81
69751;BME280;57335;52.288;6.056;2023-03-12T00:48:20;101155.31;;;-0.51;96.37
69751;BME280;57335;52.288;6.056;2023-03-12T00:50:47;101153.22;;;-0.57;96.44
69751;BME280;57335;52.288;6.056;2023-03-12T00:53:13;101142.38;;;-0.61;95.47
69751;BME280;57335;52.288;6.056;2023-03-12T00:55:39;101146.78;;;-0.51;95.66
69751;BME280;57335;52.288;6.056;2023-03-12T00:58:06;101145.41;;;-0.55;95.49
69751;BME280;57335;52.288;6.056;2023-03-12T01:00:32;101146.25;;;-0.45;95.45
69751;BME280;57335;52.288;6.056;2023-03-12T01:02:59;101142.63;;;-0.43;95.11
69751;BME280;57335;52.288;6.056;2023-03-12T01:05:25;101146.06;;;-0.32;94.57
69751;BME280;57335;52.288;6.056;2023-03-12T01:07:51;101151.09;;;-0.31;93.94
69751;BME280;57335;52.288;6.056;2023-03-12T01:10:20;101141.47;;;-0.29;94.06
69751;BME280;57335;52.288;6.056;2023-03-12T01:12:46;101132.38;;;-0.33;93.72
69751;BME280;57335;52.288;6.056;2023-03-12T01:15:15;101131.84;;;-0.27;93.09
69751;BME280;57335;52.288;6.056;2023-03-12T01:17:42;101131.84;;;-0.27;92.79
69751;BME280;57335;52.288;6.056;2023-03-12T01:20:09;101140.31;;;-0.15;92.98
69751;BME280;57335;52.288;6.056;2023-03-12T01:22:36;101140.09;;;-0.12;92.67
69751;BME280;57335;52.288;6.056;2023-03-12T01:25:03;101134.09;;;-0.12;93.03
69751;BME280;57335;52.288;6.056;2023-03-12T01:27:29;101124.06;;;-0.15;93.34
69751;BME280;57335;52.288;6.056;2023-03-12T01:29:55;101136.16;;;-0.06;92.39
69751;BME280;57335;52.288;6.056;2023-03-12T01:32:22;101132.78;;;-0.07;92.49
69751;BME280;57335;52.288;6.056;2023-03-12T01:34:49;101127.88;;;-0.10;92.96
69751;BME280;57335;52.288;6.056;2023-03-12T01:37:15;101129.78;;;-0.02;92.60
69751;BME280;57335;52.288;6.056;2023-03-12T01:39:41;101128.19;;;-0.03;92.33
69751;BME280;57335;52.288;6.056;2023-03-12T01:42:08;101103.88;;;-0.10;92.34
69751;BME280;57335;52.288;6.056;2023-03-12T01:44:56;101122.50;;;0.03;92.81
69751;BME280;57335;52.288;6.056;2023-03-12T01:47:21;101121.41;;;0.06;93.16
69751;BME280;57335;52.288;6.056;2023-03-12T01:49:49;101099.84;;;-0.03;92.93
69751;BME280;57335;52.288;6.056;2023-03-12T01:52:22;101092.66;;;0.01;92.45
69751;BME280;57335;52.288;6.056;2023-03-12T01:57:38;101111.69;;;0.09;93.27
69751;BME280;57335;52.288;6.056;2023-03-12T02:00:12;101097.72;;;0.12;93.51
69751;BME280;57335;52.288;6.056;2023-03-12T02:02:40;101100.56;;;0.09;93.61
69751;BME280;57335;52.288;6.056;2023-03-12T02:05:28;101095.41;;;0.09;93.41
69751;BME280;57335;52.288;6.056;2023-03-12T02:07:56;101095.41;;;0.09;92.67
69751;BME280;57335;52.288;6.056;2023-03-12T02:10:23;101094.44;;;0.10;92.96
69751;BME280;57335;52.288;6.056;2023-03-12T02:12:50;101103.28;;;0.17;92.30
69751;BME280;57335;52.288;6.056;2023-03-12T02:15:17;101108.31;;;0.18;92.64
69751;BME280;57335;52.288;6.056;2023-03-12T02:17:44;101095.16;;;0.22;92.99
69751;BME280;57335;52.288;6.056;2023-03-12T02:20:19;101087.44;;;0.22;93.02
69751;BME280;57335;52.288;6.056;2023-03-12T02:22:54;101074.13;;;0.16;93.65
69751;BME280;57335;52.288;6.056;2023-03-12T02:25:27;101066.78;;;0.12;94.23
69751;BME280;57335;52.288;6.056;2023-03-12T02:27:57;101063.41;;;0.11;94.06
69751;BME280;57335;52.288;6.056;2023-03-12T02:30:26;101073.97;;;0.18;93.43
69751;BME280;57335;52.288;6.056;2023-03-12T02:32:55;101060.81;;;0.11;93.74
69751;BME280;57335;52.288;6.056;2023-03-12T02:35:23;101053.09;;;0.11;94.29
69751;BME280;57335;52.288;6.056;2023-03-12T02:37:51;101074.53;;;0.22;94.36
69751;BME280;57335;52.288;6.056;2023-03-12T02:40:24;101061.50;;;0.13;93.78
69751;BME280;57335;52.288;6.056;2023-03-12T02:42:52;101061.25;;;0.16;93.56
69751;BME280;57335;52.288;6.056;2023-03-12T02:45:20;101040.63;;;0.16;93.74
69751;BME280;57335;52.288;6.056;2023-03-12T02:47:46;101036.53;;;0.14;93.92
69751;BME280;57335;52.288;6.056;2023-03-12T02:50:13;101048.22;;;0.28;94.46
69751;BME280;57335;52.288;6.056;2023-03-12T02:52:39;101028.44;;;0.18;94.60
69751;BME280;57335;52.288;6.056;2023-03-12T02:55:06;101032.38;;;0.23;94.85
69751;BME280;57335;52.288;6.056;2023-03-12T02:57:32;101022.44;;;0.18;94.35
69751;BME280;57335;52.288;6.056;2023-03-12T02:59:59;101025.44;;;0.23;94.56
69751;BME280;57335;52.288;6.056;2023-03-12T03:02:25;101004.94;;;0.12;94.59
69751;BME280;57335;52.288;6.056;2023-03-12T03:04:51;101005.50;;;0.15;94.54
69751;BME280;57335;52.288;6.056;2023-03-12T03:07:18;101023.00;;;0.22;94.21
69751;BME280;57335;52.288;6.056;2023-03-12T03:09:44;101001.97;;;0.16;94.89
69751;BME280;57335;52.288;6.056;2023-03-12T03:12:10;101010.09;;;0.22;94.64
69751;BME280;57335;52.288;6.056;2023-03-12T03:14:37;100992.88;;;0.12;94.80
69751;BME280;57335;52.288;6.056;2023-03-12T03:17:03;100990.03;;;0.15;94.99
69751;BME280;57335;52.288;6.056;2023-03-12T03:19:29;100993.72;;;0.23;95.56
69751;BME280;57335;52.288;6.056;2023-03-12T03:21:56;100979.03;;;0.13;95.69
69751;BME280;57335;52.288;6.056;2023-03-12T03:24:22;100988.25;;;0.26;95.35
69751;BME280;57335;52.288;6.056;2023-03-12T03:26:49;100991.00;;;0.24;95.69
69751;BME280;57335;52.288;6.056;2023-03-12T03:29:15;100967.91;;;0.13;94.61
69751;BME280;57335;52.288;6.056;2023-03-12T03:31:41;100993.84;;;0.31;95.08
69751;BME280;57335;52.288;6.056;2023-03-12T03:34:08;100996.81;;;0.36;94.45
69751;BME280;57335;52.288;6.056;2023-03-12T03:36:34;100990.31;;;0.32;94.54
69751;BME280;57335;52.288;6.056;2023-03-12T03:39:00;101003.75;;;0.45;93.80
69751;BME280;57335;52.288;6.056;2023-03-12T03:41:27;101003.34;;;0.50;93.88
69751;BME280;57335;52.288;6.056;2023-03-12T03:43:56;101002.66;;;0.48;93.39
69751;BME280;57335;52.288;6.056;2023-03-12T03:46:23;100993.03;;;0.50;92.69
69751;BME280;57335;52.288;6.056;2023-03-12T03:48:50;100971.88;;;0.46;92.99
69751;BME280;57335;52.288;6.056;2023-03-12T03:51:16;100975.25;;;0.56;92.96
69751;BME280;57335;52.288;6.056;2023-03-12T03:53:42;100984.19;;;0.62;93.36
69751;BME280;57335;52.288;6.056;2023-03-12T03:56:11;100978.50;;;0.58;94.10
69751;BME280;57335;52.288;6.056;2023-03-12T03:58:38;100976.59;;;0.61;94.00
69751;BME280;57335;52.288;6.056;2023-03-12T04:01:05;100968.59;;;0.64;94.24
69751;BME280;57335;52.288;6.056;2023-03-12T04:03:32;100956.91;;;0.59;94.72
69751;BME280;57335;52.288;6.056;2023-03-12T04:06:01;100951.75;;;0.59;94.13
69751;BME280;57335;52.288;6.056;2023-03-12T04:08:28;100948.50;;;0.67;94.44
69751;BME280;57335;52.288;6.056;2023-03-12T04:10:55;100952.84;;;0.67;94.73
69751;BME280;57335;52.288;6.056;2023-03-12T04:13:21;100935.59;;;0.57;95.24
69751;BME280;57335;52.288;6.056;2023-03-12T04:15:48;100942.78;;;0.64;95.05
69751;BME280;57335;52.288;6.056;2023-03-12T04:18:15;100921.38;;;0.53;94.82
69751;BME280;57335;52.288;6.056;2023-03-12T04:20:42;100925.28;;;0.57;94.93
69751;BME280;57335;52.288;6.056;2023-03-12T04:23:08;100927.59;;;0.61;95.59
69751;BME280;57335;52.288;6.056;2023-03-12T04:25:35;100925.03;;;0.61;95.62
69751;BME280;57335;52.288;6.056;2023-03-12T04:28:02;100914.97;;;0.57;94.34
69751;BME280;57335;52.288;6.056;2023-03-12T04:30:28;100927.06;;;0.67;94.23
69751;BME280;57335;52.288;6.056;2023-03-12T04:32:55;100900.97;;;0.60;93.66
69751;BME280;57335;52.288;6.056;2023-03-12T04:35:21;100898.56;;;0.58;94.26
69751;BME280;57335;52.288;6.056;2023-03-12T04:37:48;100908.19;;;0.66;93.56
69751;BME280;57335;52.288;6.056;2023-03-12T04:40:14;100895.56;;;0.53;92.83
69751;BME280;57335;52.288;6.056;2023-03-12T04:42:40;100892.44;;;0.59;92.47
69751;BME280;57335;52.288;6.056;2023-03-12T04:45:07;100902.19;;;0.66;92.83
69751;BME280;57335;52.288;6.056;2023-03-12T04:47:35;100898.38;;;0.70;93.21
69751;BME280;57335;52.288;6.056;2023-03-12T04:50:02;100904.88;;;0.74;93.03
69751;BME280;57335;52.288;6.056;2023-03-12T04:52:28;100906.53;;;0.75;92.68
69751;BME280;57335;52.288;6.056;2023-03-12T04:54:55;100897.59;;;0.69;92.79
69751;BME280;57335;52.288;6.056;2023-03-12T04:57:21;100889.97;;;0.68;92.51
69751;BME280;57335;52.288;6.056;2023-03-12T04:59:48;100886.47;;;0.69;93.36
69751;BME280;57335;52.288;6.056;2023-03-12T05:02:14;100883.59;;;0.72;93.14
69751;BME280;57335;52.288;6.056;2023-03-12T05:04:41;100874.91;;;0.73;93.24
69751;BME280;57335;52.288;6.056;2023-03-12T05:07:07;100871.09;;;0.77;93.04
69751;BME280;57335;52.288;6.056;2023-03-12T05:09:34;100875.69;;;0.83;93.46
69751;BME280;57335;52.288;6.056;2023-03-12T05:12:00;100854.13;;;0.74;93.19
69751;BME280;57335;52.288;6.056;2023-03-12T05:14:26;100870.09;;;0.88;93.27
69751;BME280;57335;52.288;6.056;2023-03-12T05:16:53;100859.81;;;0.78;93.72
69751;BME280;57335;52.288;6.056;2023-03-12T05:19:19;100856.28;;;0.79;92.91
69751;BME280;57335;52.288;6.056;2023-03-12T05:21:46;100865.47;;;0.91;92.34
69751;BME280;57335;52.288;6.056;2023-03-12T05:24:12;100847.72;;;0.88;92.96
69751;BME280;57335;52.288;6.056;2023-03-12T05:26:39;100858.25;;;0.95;93.47
69751;BME280;57335;52.288;6.056;2023-03-12T05:29:05;100861.38;;;0.98;93.44
69751;BME280;57335;52.288;6.056;2023-03-12T05:31:31;100844.56;;;0.94;93.59
69751;BME280;57335;52.288;6.056;2023-03-12T05:33:58;100824.63;;;0.87;93.35
69751;BME280;57335;52.288;6.056;2023-03-12T05:36:25;100842.25;;;0.91;93.12
69751;BME280;57335;52.288;6.056;2023-03-12T05:38:51;100861.06;;;1.02;93.25
69751;BME280;57335;52.288;6.056;2023-03-12T05:41:19;100865.66;;;1.08;93.16
69751;BME280;57335;52.288;6.056;2023-03-12T05:43:46;100863.06;;;1.08;94.04
69751;BME280;57335;52.288;6.056;2023-03-12T05:46:13;100866.06;;;1.13;95.03
69751;BME280;57335;52.288;6.056;2023-03-12T05:48:40;100859.66;;;1.17;95.14
69751;BME280;57335;52.288;6.056;2023-03-12T05:51:06;100858.97;;;1.15;95.61
69751;BME280;57335;52.288;6.056;2023-03-12T05:53:33;100848.25;;;1.10;96.13
69751;BME280;57335;52.288;6.056;2023-03-12T05:56:03;100851.50;;;1.12;97.60
69751;BME280;57335;52.288;6.056;2023-03-12T05:58:30;100829.00;;;1.04;97.56
69751;BME280;57335;52.288;6.056;2023-03-12T06:00:57;100835.22;;;1.11;98.97
69751;BME280;57335;52.288;6.056;2023-03-12T06:03:23;100829.78;;;1.14;100.00
69751;BME280;57335;52.288;6.056;2023-03-12T06:05:50;100829.78;;;1.14;100.00
69751;BME280;57335;52.288;6.056;2023-03-12T06:08:16;100817.72;;;1.05;100.00
69751;BME280;57335;52.288;6.056;2023-03-12T06:10:43;100812.44;;;1.07;100.00
69751;BME280;57335;52.288;6.056;2023-03-12T06:13:09;100805.28;;;1.01;100.00
69751;BME280;57335;52.288;6.056;2023-03-12T06:15:35;100802.91;;;1.07;100.00
69751;BME280;57335;52.288;6.056;2023-03-12T06:18:02;100816.44;;;1.19;100.00
69751;BME280;57335;52.288;6.056;2023-03-12T06:20:28;100795.84;;;1.09;100.00
69751;BME280;57335;52.288;6.056;2023-03-12T06:22:55;100799.91;;;1.12;100.00
69751;BME280;57335;52.288;6.056;2023-03-12T06:25:21;100821.00;;;1.25;100.00
69751;BME280;57335;52.288;6.056;2023-03-12T06:27:47;100808.47;;;1.30;100.00
69751;BME280;57335;52.288;6.056;2023-03-12T06:30:14;100800.06;;;1.28;100.00
69751;BME280;57335;52.288;6.056;2023-03-12T06:32:41;100800.31;;;1.35;100.00
69751;BME280;57335;52.288;6.056;2023-03-12T06:35:07;100786.59;;;1.34;100.00
69751;BME280;57335;52.288;6.056;2023-03-12T06:37:34;100781.25;;;1.36;100.00
69751;BME280;57335;52.288;6.056;2023-03-12T06:40:00;100787.00;;;1.48;100.00
69751;BME280;57335;52.288;6.056;2023-03-12T06:42:27;100773.75;;;1.43;100.00
69751;BME280;57335;52.288;6.056;2023-03-12T06:44:53;100788.00;;;1.47;100.00
69751;BME280;57335;52.288;6.056;2023-03-12T06:47:19;100788.19;;;1.53;100.00
69751;BME280;57335;52.288;6.056;2023-03-12T06:49:46;100790.50;;;1.56;100.00
69751;BME280;57335;52.288;6.056;2023-03-12T06:52:12;100778.16;;;1.50;100.00
69751;BME280;57335;52.288;6.056;2023-03-12T06:54:38;100771.91;;;1.53;100.00
69751;BME280;57335;52.288;6.056;2023-03-12T06:57:05;100769.66;;;1.58;100.00
69751;BME280;57335;52.288;6.056;2023-03-12T06:59:31;100775.22;;;1.63;100.00
69751;BME280;57335;52.288;6.056;2023-03-12T07:01:58;100753.16;;;1.51;100.00
69751;BME280;57335;52.288;6.056;2023-03-12T07:04:24;100770.19;;;1.62;100.00
69751;BME280;57335;52.288;6.056;2023-03-12T07:06:51;100776.41;;;1.69;100.00
69751;BME280;57335;52.288;6.056;2023-03-12T07:09:17;100791.66;;;1.80;100.00
69751;BME280;57335;52.288;6.056;2023-03-12T07:11:44;100800.06;;;1.82;100.00
69751;BME280;57335;52.288;6.056;2023-03-12T07:14:10;100781.81;;;1.84;100.00
69751;BME280;57335;52.288;6.056;2023-03-12T07:16:37;100766.78;;;1.79;100.00
69751;BME280;57335;52.288;6.056;2023-03-12T07:19:03;100767.31;;;1.83;100.00
69751;BME280;57335;52.288;6.056;2023-03-12T07:21:29;100763.69;;;1.75;100.00
69751;BME280;57335;52.288;6.056;2023-03-12T07:23:56;100750.00;;;1.83;100.00
69751;BME280;57335;52.288;6.056;2023-03-12T07:26:22;100753.53;;;1.82;100.00
69751;BME280;57335;52.288;6.056;2023-03-12T07:28:49;100721.31;;;1.68;100.00
69751;BME280;57335;52.288;6.056;2023-03-12T07:31:15;100741.66;;;1.89;100.00
69751;BME280;57335;52.288;6.056;2023-03-12T07:33:42;100733.53;;;1.84;100.00
69751;BME280;57335;52.288;6.056;2023-03-12T07:36:08;100742.97;;;1.93;100.00
69751;BME280;57335;52.288;6.056;2023-03-12T07:38:35;100733.66;;;2.01;100.00
69751;BME280;57335;52.288;6.056;2023-03-12T07:41:02;100726.56;;;2.03;100.00
69751;BME280;57335;52.288;6.056;2023-03-12T07:43:28;100718.16;;;2.01;100.00
69751;BME280;57335;52.288;6.056;2023-03-12T07:45:55;100712.72;;;2.12;100.00
69751;BME280;57335;52.288;6.056;2023-03-12T07:48:21;100720.34;;;2.22;100.00
69751;BME280;57335;52.288;6.056;2023-03-12T07:50:47;100714.22;;;2.23;100.00
69751;BME280;57335;52.288;6.056;2023-03-12T07:53:14;100718.94;;;2.27;100.00
69751;BME280;57335;52.288;6.056;2023-03-12T07:55:43;100709.72;;;2.25;100.00
69751;BME280;57335;52.288;6.056;2023-03-12T07:58:10;100719.13;;;2.34;100.00
69751;BME280;57335;52.288;6.056;2023-03-12T08:00:36;100728.19;;;2.38;100.00
69751;BME280;57335;52.288;6.056;2023-03-12T08:03:03;100722.97;;;2.30;100.00
69751;BME280;57335;52.288;6.056;2023-03-12T08:05:30;100741.97;;;2.47;100.00
69751;BME280;57335;52.288;6.056;2023-03-12T08:07:56;100744.72;;;2.45;100.00
69751;BME280;57335;52.288;6.056;2023-03-12T08:10:23;100760.28;;;2.53;100.00
69751;BME280;57335;52.288;6.056;2023-03-12T08:12:49;100755.41;;;2.50;100.00
69751;BME280;57335;52.288;6.056;2023-03-12T08:15:16;100761.56;;;2.57;100.00
69751;BME280;57335;52.288;6.056;2023-03-12T08:17:42;100750.22;;;2.50;100.00
69751;BME280;57335;52.288;6.056;2023-03-12T08:20:10;100737.25;;;2.42;100.00
69751;BME280;57335;52.288;6.056;2023-03-12T08:22:37;100760.56;;;2.50;100.00
69751;BME280;57335;52.288;6.056;2023-03-12T08:25:05;100748.09;;;2.46;100.00
69751;BME280;57335;52.288;6.056;2023-03-12T08:27:32;100744.69;;;2.37;100.00
69751;BME280;57335;52.288;6.056;2023-03-12T08:29:59;100765.25;;;2.47;100.00
69751;BME280;57335;52.288;6.056;2023-03-12T08:32:26;100753.38;;;2.36;100.00
69751;BME280;57335;52.288;6.056;2023-03-12T08:34:52;100757.00;;;2.43;100.00
69751;BME280;57335;52.288;6.056;2023-03-12T08:37:19;100744.22;;;2.42;100.00
69751;BME280;57335;52.288;6.056;2023-03-12T08:39:45;100736.75;;;2.38;100.00
69751;BME280;57335;52.288;6.056;2023-03-12T08:42:11;100733.91;;;2.50;100.00
69751;BME280;57335;52.288;6.056;2023-03-12T08:44:38;100737.94;;;2.52;100.00
69751;BME280;57335;52.288;6.056;2023-03-12T08:47:04;100722.91;;;2.56;100.00
69751;BME280;57335;52.288;6.056;2023-03-12T08:49:31;100720.03;;;2.59;100.00
69751;BME280;57335;52.288;6.056;2023-03-12T08:51:57;100729.75;;;2.65;100.00
69751;BME280;57335;52.288;6.056;2023-03-12T08:54:23;100725.38;;;2.66;100.00
69751;BME280;57335;52.288;6.056;2023-03-12T08:56:50;100728.47;;;2.69;100.00
69751;BME280;57335;52.288;6.056;2023-03-12T08:59:18;100719.59;;;2.72;100.00
69751;BME280;57335;52.288;6.056;2023-03-12T09:01:45;100724.78;;;2.80;100.00
69751;BME280;57335;52.288;6.056;2023-03-12T09:04:11;100720.91;;;2.84;100.00
69751;BME280;57335;52.288;6.056;2023-03-12T09:06:38;100728.53;;;2.86;100.00
69751;BME280;57335;52.288;6.056;2023-03-12T09:09:04;100730.97;;;2.87;100.00
69751;BME280;57335;52.288;6.056;2023-03-12T09:11:32;100721.91;;;2.91;100.00
69751;BME280;57335;52.288;6.056;2023-03-12T09:14:00;100717.03;;;2.88;100.00
69751;BME280;57335;52.288;6.056;2023-03-12T09:16:47;100710.75;;;2.91;100.00
69751;BME280;57335;52.288;6.056;2023-03-12T09:19:14;100707.34;;;2.98;100.00
69751;BME280;57335;52.288;6.056;2023-03-12T09:21:40;100726.31;;;3.07;100.00
69751;BME280;57335;52.288;6.056;2023-03-12T09:24:07;100726.81;;;3.11;100.00
69751;BME280;57335;52.288;6.056;2023-03-12T09:26:34;100712.38;;;3.08;100.00
69751;BME280;57335;52.288;6.056;2023-03-12T09:29:01;100713.69;;;3.12;100.00
69751;BME280;57335;52.288;6.056;2023-03-12T09:31:27;100742.34;;;3.19;100.00
69751;BME280;57335;52.288;6.056;2023-03-12T09:33:54;100731.81;;;3.20;100.00
69751;BME280;57335;52.288;6.056;2023-03-12T09:36:21;100728.25;;;3.13;100.00
69751;BME280;57335;52.288;6.056;2023-03-12T09:38:47;100724.38;;;3.17;100.00
69751;BME280;57335;52.288;6.056;2023-03-12T09:41:20;100726.63;;;3.20;100.00
69751;BME280;57335;52.288;6.056;2023-03-12T09:43:55;100720.34;;;3.31;100.00
69751;BME280;57335;52.288;6.056;2023-03-12T09:46:27;100691.22;;;3.29;100.00
69751;BME280;57335;52.288;6.056;2023-03-12T09:48:57;100708.03;;;3.42;100.00
69751;BME280;57335;52.288;6.056;2023-03-12T09:51:43;100704.94;;;3.46;100.00
69751;BME280;57335;52.288;6.056;2023-03-12T09:57:18;100700.56;;;3.71;100.00
69751;BME280;57335;52.288;6.056;2023-03-12T09:59:47;100690.19;;;3.79;100.00
69751;BME280;57335;52.288;6.056;2023-03-12T10:02:33;100701.66;;;3.93;100.00
69751;BME280;57335;52.288;6.056;2023-03-12T10:05:22;100706.00;;;4.09;100.00
69751;BME280;57335;52.288;6.056;2023-03-12T10:07:56;100708.19;;;4.29;100.00
69751;BME280;57335;52.288;6.056;2023-03-12T10:10:49;100716.59;;;4.39;100.00
69751;BME280;57335;52.288;6.056;2023-03-12T10:16:34;100708.34;;;4.67;100.00
69751;BME280;57335;52.288;6.056;2023-03-12T10:22:01;100713.28;;;4.85;100.00
69751;BME280;57335;52.288;6.056;2023-03-12T10:27:40;100701.50;;;5.05;100.00
69751;BME280;57335;52.288;6.056;2023-03-12T10:30:28;100710.66;;;5.16;100.00
69751;BME280;57335;52.288;6.056;2023-03-12T10:32:59;100698.56;;;5.23;100.00
69751;BME280;57335;52.288;6.056;2023-03-12T10:35:27;100680.78;;;5.35;100.00
69751;BME280;57335;52.288;6.056;2023-03-12T10:38:00;100690.34;;;5.57;100.00
69751;BME280;57335;52.288;6.056;2023-03-12T10:40:30;100698.88;;;5.66;100.00
69751;BME280;57335;52.288;6.056;2023-03-12T10:42:57;100693.59;;;5.74;100.00
69751;BME280;57335;52.288;6.056;2023-03-12T10:45:45;100689.66;;;5.78;100.00
69751;BME280;57335;52.288;6.056;2023-03-12T10:48:22;100695.50;;;5.80;100.00
69751;BME280;57335;52.288;6.056;2023-03-12T10:51:10;100684.03;;;5.90;100.00
69751;BME280;57335;52.288;6.056;2023-03-12T10:53:40;100668.13;;;5.85;100.00
69751;BME280;57335;52.288;6.056;2023-03-12T10:56:15;100685.78;;;5.97;100.00
69751;BME280;57335;52.288;6.056;2023-03-12T10:58:45;100689.31;;;6.11;100.00
69751;BME280;57335;52.288;6.056;2023-03-12T11:01:29;100677.59;;;6.15;100.00
69751;BME280;57335;52.288;6.056;2023-03-12T11:04:16;100704.41;;;6.31;100.00
69751;BME280;57335;52.288;6.056;2023-03-12T11:09:36;100678.53;;;6.44;100.00
69751;BME280;57335;52.288;6.056;2023-03-12T11:12:22;100685.50;;;6.58;100.00
69751;BME280;57335;52.288;6.056;2023-03-12T11:14:49;100698.69;;;6.72;100.00
69751;BME280;57335;52.288;6.056;2023-03-12T11:17:22;100697.94;;;6.78;100.00
69751;BME280;57335;52.288;6.056;2023-03-12T11:19:49;100678.34;;;6.82;100.00
69751;BME280;57335;52.288;6.056;2023-03-12T11:22:33;100692.50;;;6.94;100.00
69751;BME280;57335;52.288;6.056;2023-03-12T11:25:02;100685.31;;;6.96;100.00
69751;BME280;57335;52.288;6.056;2023-03-12T11:27:37;100684.81;;;7.08;100.00
69751;BME280;57335;52.288;6.056;2023-03-12T11:30:13;100680.63;;;7.13;100.00
69751;BME280;57335;52.288;6.056;2023-03-12T11:32:43;100681.47;;;7.14;100.00
69751;BME280;57335;52.288;6.056;2023-03-12T11:35:12;100680.31;;;7.23;100.00
69751;BME280;57335;52.288;6.056;2023-03-12T11:44:03;100700.41;;;7.79;100.00
69751;BME280;57335;52.288;6.056;2023-03-12T11:49:36;100694.53;;;8.05;100.00
69751;BME280;57335;52.288;6.056;2023-03-12T11:52:36;100695.84;;;8.23;100.00
69751;BME280;57335;52.288;6.056;2023-03-12T11:55:12;100695.31;;;8.34;100.00
69751;BME280;57335;52.288;6.056;2023-03-12T11:57:58;100702.41;;;8.53;100.00
69751;BME280;57335;52.288;6.056;2023-03-12T12:00:34;100694.63;;;8.67;100.00
69751;BME280;57335;52.288;6.056;2023-03-12T12:03:19;100700.72;;;8.87;100.00
69751;BME280;57335;52.288;6.056;2023-03-12T12:06:08;100690.84;;;8.89;100.00
69751;BME280;57335;52.288;6.056;2023-03-12T12:09:03;100688.44;;;8.88;100.00
69751;BME280;57335;52.288;6.056;2023-03-12T12:17:28;100666.88;;;8.66;100.00
69751;BME280;57335;52.288;6.056;2023-03-12T12:23:46;100664.28;;;8.66;100.00
69751;BME280;57335;52.288;6.056;2023-03-12T12:28:59;100660.66;;;8.67;100.00
69751;BME280;57335;52.288;6.056;2023-03-12T12:37:28;100657.25;;;8.79;100.00
69751;BME280;57335;52.288;6.056;2023-03-12T12:43:22;100651.66;;;8.83;100.00
69751;BME280;57335;52.288;6.056;2023-03-12T12:45:51;100655.66;;;8.85;100.00
69751;BME280;57335;52.288;6.056;2023-03-12T12:48:31;100655.06;;;8.90;100.00
69751;BME280;57335;52.288;6.056;2023-03-12T12:51:00;100635.38;;;8.81;100.00
69751;BME280;57335;52.288;6.056;2023-03-12T12:53:35;100633.97;;;8.91;100.00
69751;BME280;57335;52.288;6.056;2023-03-12T12:56:21;100636.19;;;8.94;100.00
69751;BME280;57335;52.288;6.056;2023-03-12T13:01:44;100640.81;;;9.06;100.00
69751;BME280;57335;52.288;6.056;2023-03-12T13:04:19;100622.94;;;9.03;100.00
69751;BME280;57335;52.288;6.056;2023-03-12T13:09:21;100622.72;;;9.11;100.00
69751;BME280;57335;52.288;6.056;2023-03-12T13:11:48;100616.09;;;9.08;100.00
69751;BME280;57335;52.288;6.056;2023-03-12T13:14:19;100621.31;;;9.15;100.00
69751;BME280;57335;52.288;6.056;2023-03-12T13:16:47;100617.06;;;9.14;100.00
69751;BME280;57335;52.288;6.056;2023-03-12T13:21:40;100623.72;;;9.30;100.00
69751;BME280;57335;52.288;6.056;2023-03-12T13:24:21;100618.88;;;9.33;100.00
69751;BME280;57335;52.288;6.056;2023-03-12T13:26:55;100624.91;;;9.41;100.00
69751;BME280;57335;52.288;6.056;2023-03-12T13:31:54;100613.84;;;9.38;100.00
69751;BME280;57335;52.288;6.056;2023-03-12T13:36:50;100621.31;;;9.35;100.00
69751;BME280;57335;52.288;6.056;2023-03-12T13:39:26;100633.97;;;9.45;100.00
69751;BME280;57335;52.288;6.056;2023-03-12T13:41:55;100629.75;;;9.37;100.00
69751;BME280;57335;52.288;6.056;2023-03-12T13:47:30;100632.16;;;9.38;100.00
69751;BME280;57335;52.288;6.056;2023-03-12T13:50:07;100637.00;;;9.35;100.00
69751;BME280;57335;52.288;6.056;2023-03-12T13:52:46;100636.56;;;9.38;100.00
69751;BME280;57335;52.288;6.056;2023-03-12T13:55:20;100630.94;;;9.41;100.00
69751;BME280;57335;52.288;6.056;2023-03-12T13:58:15;100633.75;;;9.39;100.00
69751;BME280;57335;52.288;6.056;2023-03-12T14:00:56;100635.78;;;9.37;100.00
69751;BME280;57335;52.288;6.056;2023-03-12T14:03:28;100627.31;;;9.35;100.00
69751;BME280;57335;52.288;6.056;2023-03-12T14:06:07;100641.81;;;9.38;100.00
69751;BME280;57335;52.288;6.056;2023-03-12T14:08:56;100636.19;;;9.34;100.00